createdAt,value
2023-04-05T00:01:16.021Z,9.93
2023-04-05T00:03:47.573Z,11.10
2023-04-05T00:06:16.785Z,14.50
2023-04-05T00:08:50.312Z,14.87
2023-04-05T00:11:19.222Z,9.70
2023-04-05T00:13:47.695Z,13.93
2023-04-05T00:16:19.267Z,13.63
2023-04-05T00:18:51.749Z,12.70
2023-04-05T00:21:22.876Z,13.87
2023-04-05T00:23:56.390Z,15.73
2023-04-05T00:26:24.928Z,17.17
2023-04-05T00:28:57.574Z,11.97
2023-04-05T00:31:25.903Z,11.87
2023-04-05T00:33:55.794Z,17.70
2023-04-05T00:36:24.261Z,11.50
2023-04-05T00:38:53.055Z,14.37
2023-04-05T00:41:21.378Z,12.47
2023-04-05T00:43:49.941Z,18.23
2023-04-05T00:46:18.353Z,14.13
2023-04-05T00:48:47.234Z,12.73
2023-04-05T00:51:17.432Z,15.67
2023-04-05T00:53:46.213Z,10.57
2023-04-05T00:56:16.899Z,12.33
2023-04-05T00:58:45.347Z,14.10
2023-04-05T01:01:18.591Z,13.00
2023-04-05T01:03:54.074Z,18.03
2023-04-05T01:07:00.989Z,12.13
2023-04-05T01:09:39.961Z,12.33
2023-04-05T01:12:11.458Z,12.83
2023-04-05T01:14:47.954Z,12.07
2023-04-05T01:17:16.532Z,16.93
2023-04-05T01:19:48.310Z,16.93
2023-04-05T01:22:52.461Z,14.63
2023-04-05T01:25:50.380Z,15.03
2023-04-05T01:28:49.512Z,13.20
2023-04-05T01:31:27.560Z,13.07
2023-04-05T01:34:03.369Z,15.03
2023-04-05T01:36:38.351Z,13.37
2023-04-05T01:39:09.712Z,9.63
2023-04-05T01:41:40.131Z,14.10
2023-04-05T01:44:08.825Z,11.67
2023-04-05T01:46:38.689Z,18.73
2023-04-05T01:49:07.313Z,14.73
2023-04-05T01:51:42.155Z,13.83
2023-04-05T01:54:11.017Z,13.10
2023-04-05T01:56:39.361Z,17.13
2023-04-05T01:59:07.960Z,18.07
2023-04-05T02:01:36.722Z,14.67
2023-04-05T02:04:06.574Z,13.03
2023-04-05T02:06:34.942Z,16.57
2023-04-05T02:09:03.603Z,11.57
2023-04-05T02:11:32.099Z,12.57
2023-04-05T02:14:01.119Z,15.27
2023-04-05T02:16:33.211Z,14.77
2023-04-05T02:19:02.447Z,10.57
2023-04-05T02:21:32.381Z,12.87
2023-04-05T02:24:01.050Z,18.57
2023-04-05T02:26:29.429Z,14.87
2023-04-05T02:28:59.279Z,16.70
2023-04-05T02:31:27.702Z,14.23
2023-04-05T02:33:56.206Z,12.30
2023-04-05T02:36:28.384Z,16.57
2023-04-05T02:38:58.221Z,11.40
2023-04-05T02:41:27.120Z,11.93
2023-04-05T02:43:55.653Z,12.93
2023-04-05T02:46:24.124Z,13.27
2023-04-05T02:48:52.630Z,15.77
2023-04-05T02:51:21.351Z,14.27
2023-04-05T02:53:49.701Z,12.83
2023-04-05T02:56:19.612Z,15.23
2023-04-05T02:58:49.949Z,13.70
2023-04-05T03:01:24.053Z,15.63
2023-04-05T03:03:52.542Z,15.47
2023-04-05T03:06:22.541Z,17.20
2023-04-05T03:08:53.966Z,15.33
2023-04-05T03:11:26.972Z,13.20
2023-04-05T03:13:59.280Z,12.93
2023-04-05T03:16:40.118Z,17.30
2023-04-05T03:19:18.933Z,16.73
2023-04-05T03:21:48.504Z,16.73
2023-04-05T03:24:37.406Z,17.03
2023-04-05T03:27:10.532Z,16.60
2023-04-05T03:29:59.349Z,12.23
2023-04-05T03:32:28.244Z,15.57
2023-04-05T03:35:04.327Z,17.10
2023-04-05T03:37:34.425Z,18.27
2023-04-05T03:40:10.717Z,16.10
2023-04-05T03:42:40.662Z,12.97
2023-04-05T03:45:12.424Z,17.17
2023-04-05T03:47:41.182Z,16.07
2023-04-05T03:50:10.617Z,18.17
2023-04-05T03:52:39.110Z,16.70
2023-04-05T03:55:08.151Z,23.83
2023-04-05T03:57:40.780Z,17.77
2023-04-05T04:00:29.752Z,18.53
2023-04-05T04:03:26.176Z,17.07
2023-04-05T04:05:55.282Z,16.17
2023-04-05T04:08:23.910Z,22.13
2023-04-05T04:10:52.271Z,20.00
2023-04-05T04:13:27.785Z,15.13
2023-04-05T04:16:18.300Z,24.47
2023-04-05T04:18:46.740Z,16.13
2023-04-05T04:21:39.710Z,15.23
2023-04-05T04:24:34.777Z,13.67
2023-04-05T04:27:11.458Z,14.57
2023-04-05T04:30:01.977Z,17.73
2023-04-05T04:32:55.218Z,16.50
2023-04-05T04:35:42.773Z,15.33
2023-04-05T04:38:30.202Z,24.27
2023-04-05T04:41:17.828Z,15.67
2023-04-05T04:44:14.934Z,15.90
2023-04-05T04:47:17.595Z,15.90
2023-04-05T04:49:59.813Z,18.80
2023-04-05T04:52:29.831Z,15.40
2023-04-05T04:54:58.228Z,19.30
2023-04-05T04:57:27.245Z,16.13
2023-04-05T04:59:56.277Z,19.47
2023-04-05T05:02:27.463Z,15.67
2023-04-05T05:04:57.179Z,22.43
2023-04-05T05:07:25.970Z,25.10
2023-04-05T05:09:54.550Z,20.40
2023-04-05T05:12:22.956Z,15.93
2023-04-05T05:14:51.384Z,22.40
2023-04-05T05:17:23.503Z,27.27
2023-04-05T05:19:55.257Z,19.50
2023-04-05T05:22:24.932Z,20.13
2023-04-05T05:24:53.344Z,19.23
2023-04-05T05:27:22.289Z,18.37
2023-04-05T05:29:50.840Z,21.40
2023-04-05T05:32:19.467Z,19.70
2023-04-05T05:34:48.808Z,20.73
2023-04-05T05:37:19.254Z,22.77
2023-04-05T05:39:47.908Z,23.73
2023-04-05T05:42:16.388Z,21.40
2023-04-05T05:44:45.043Z,17.53
2023-04-05T05:47:13.549Z,25.00
2023-04-05T05:49:42.115Z,21.07
2023-04-05T05:52:10.801Z,20.70
2023-04-05T05:54:41.020Z,21.63
2023-04-05T05:57:09.367Z,23.63
2023-04-05T05:59:38.012Z,22.43
2023-04-05T06:02:06.584Z,21.47
2023-04-05T06:04:35.735Z,19.37
2023-04-05T06:07:04.238Z,24.90
2023-04-05T06:09:34.069Z,24.37
2023-04-05T06:12:04.119Z,27.63
2023-04-05T06:14:32.460Z,29.30
2023-04-05T06:17:00.917Z,26.20
2023-04-05T06:19:29.595Z,42.43
2023-04-05T06:21:57.981Z,27.87
2023-04-05T06:24:26.603Z,24.87
2023-04-05T06:26:54.984Z,23.07
2023-04-05T06:29:24.793Z,25.73
2023-04-05T06:31:53.141Z,24.87
2023-04-05T06:34:21.643Z,26.80
2023-04-05T06:36:50.208Z,29.40
2023-04-05T06:39:18.837Z,24.90
2023-04-05T06:41:47.174Z,21.27
2023-04-05T06:44:15.577Z,25.70
2023-04-05T06:46:45.417Z,27.90
2023-04-05T06:49:13.879Z,24.87
2023-04-05T06:51:42.276Z,27.63
2023-04-05T06:54:10.879Z,22.40
2023-04-05T06:56:39.203Z,25.20
2023-04-05T06:59:07.634Z,29.17
2023-04-05T07:01:36.366Z,33.90
2023-04-05T07:04:06.328Z,21.27
2023-04-05T07:06:39.104Z,26.83
2023-04-05T07:09:10.517Z,29.03
2023-04-05T07:11:40.123Z,25.27
2023-04-05T07:14:08.577Z,25.77
2023-04-05T07:16:36.942Z,20.90
2023-04-05T07:19:07.335Z,20.77
2023-04-05T07:21:35.762Z,27.63
2023-04-05T07:24:04.125Z,19.37
2023-04-05T07:26:35.086Z,17.77
2023-04-05T07:29:04.282Z,19.80
2023-04-05T07:31:32.680Z,15.93
2023-04-05T07:34:01.287Z,14.33
2023-04-05T07:36:31.484Z,16.20
2023-04-05T07:39:00.034Z,16.83
2023-04-05T07:41:31.984Z,15.50
2023-04-05T07:44:00.547Z,16.00
2023-04-05T07:46:30.069Z,14.20
2023-04-05T07:48:58.589Z,11.43
2023-04-05T07:51:27.498Z,14.20
2023-04-05T07:53:57.205Z,12.60
2023-04-05T07:56:25.757Z,12.20
2023-04-05T07:58:55.122Z,12.60
2023-04-05T08:01:27.733Z,14.17
2023-04-05T08:03:57.585Z,11.70
2023-04-05T08:06:27.396Z,12.57
2023-04-05T08:08:57.178Z,15.47
2023-04-05T08:11:26.223Z,17.10
2023-04-05T08:13:55.167Z,13.80
2023-04-05T08:16:23.566Z,11.60
2023-04-05T08:18:52.034Z,10.97
2023-04-05T08:21:20.877Z,14.77
2023-04-05T08:23:50.222Z,13.13
2023-04-05T08:26:19.973Z,13.20
2023-04-05T08:28:48.421Z,12.47
2023-04-05T08:31:16.779Z,13.27
2023-04-05T08:33:45.334Z,13.73
2023-04-05T08:36:13.677Z,11.80
2023-04-05T08:38:42.105Z,11.87
2023-04-05T08:41:18.520Z,15.13
2023-04-05T08:43:57.630Z,13.50
2023-04-05T08:46:27.437Z,13.73
2023-04-05T08:48:56.426Z,14.43
2023-04-05T08:51:26.332Z,11.50
2023-04-05T08:53:55.500Z,14.80
2023-04-05T08:56:27.428Z,19.17
2023-04-05T08:59:03.378Z,13.43
2023-04-05T09:01:33.931Z,12.00
2023-04-05T09:04:06.849Z,15.70
2023-04-05T09:06:37.598Z,11.77
2023-04-05T09:09:09.484Z,10.10
2023-04-05T09:11:37.902Z,15.30
2023-04-05T09:14:08.425Z,15.03
2023-04-05T09:16:39.502Z,15.03
2023-04-05T09:19:08.148Z,11.70
2023-04-05T09:22:04.323Z,14.50
2023-04-05T09:24:41.730Z,10.77
2023-04-05T09:27:11.806Z,12.57
2023-04-05T09:29:43.545Z,13.23
2023-04-05T09:32:15.140Z,14.53
2023-04-05T09:34:44.858Z,12.77
2023-04-05T09:37:33.954Z,11.40
2023-04-05T09:40:04.760Z,12.97
2023-04-05T09:42:45.016Z,14.23
2023-04-05T09:45:15.913Z,15.07
2023-04-05T09:47:58.546Z,7.40
2023-04-05T09:50:27.409Z,11.70
2023-04-05T09:53:08.693Z,9.93
2023-04-05T09:55:38.263Z,11.57
2023-04-05T09:58:06.830Z,11.93
2023-04-05T10:00:38.085Z,9.73
2023-04-05T10:03:06.855Z,9.77
2023-04-05T10:05:35.541Z,13.03
2023-04-05T10:08:06.984Z,11.00
2023-04-05T10:10:47.021Z,13.97
2023-04-05T10:13:17.234Z,11.83
2023-04-05T10:15:51.412Z,10.97
2023-04-05T10:18:23.212Z,10.70
2023-04-05T10:20:52.679Z,10.90
2023-04-05T10:23:26.638Z,11.47
2023-04-05T10:26:07.468Z,12.00
2023-04-05T10:28:38.287Z,11.73
2023-04-05T10:31:16.943Z,16.20
2023-04-05T10:34:00.384Z,13.30
2023-04-05T10:36:40.432Z,14.03
2023-04-05T10:39:24.573Z,13.83
2023-04-05T10:41:58.051Z,10.77
2023-04-05T10:44:27.146Z,17.20
2023-04-05T10:46:59.063Z,9.60
2023-04-05T10:49:35.717Z,10.70
2023-04-05T10:52:05.079Z,10.97
2023-04-05T10:54:37.244Z,12.73
2023-04-05T10:57:09.717Z,12.53
2023-04-05T10:59:45.785Z,11.27
2023-04-05T11:02:16.416Z,11.63
2023-04-05T11:04:45.266Z,9.53
2023-04-05T11:07:15.794Z,9.23
2023-04-05T11:09:57.696Z,12.30
2023-04-05T11:13:06.252Z,11.47
2023-04-05T11:15:36.196Z,13.10
2023-04-05T11:18:08.994Z,10.77
2023-04-05T11:20:52.098Z,13.00
2023-04-05T11:23:23.066Z,10.27
2023-04-05T11:25:53.100Z,11.67
2023-04-05T11:28:26.134Z,12.20
2023-04-05T11:30:57.224Z,9.27
2023-04-05T11:33:56.728Z,11.77
2023-04-05T11:36:35.051Z,7.50
2023-04-05T11:39:28.462Z,9.03
2023-04-05T11:42:03.972Z,10.60
2023-04-05T11:44:43.353Z,12.10
2023-04-05T11:47:12.224Z,11.90
2023-04-05T11:49:43.391Z,9.50
2023-04-05T11:52:15.985Z,8.97
2023-04-05T11:54:49.484Z,10.03
2023-04-05T11:57:21.456Z,10.50
2023-04-05T11:59:51.720Z,8.63
2023-04-05T12:02:21.196Z,10.03
2023-04-05T12:04:57.639Z,9.37
2023-04-05T12:07:29.606Z,9.60
2023-04-05T12:10:07.275Z,7.97
2023-04-05T12:12:38.292Z,9.63
2023-04-05T12:15:09.483Z,8.83
2023-04-05T12:17:46.547Z,7.87
2023-04-05T12:20:19.453Z,12.30
2023-04-05T12:22:50.004Z,7.33
2023-04-05T12:25:19.482Z,8.90
2023-04-05T12:27:48.517Z,8.77
2023-04-05T12:30:18.515Z,7.97
2023-04-05T12:32:48.885Z,7.53
2023-04-05T12:35:19.955Z,8.47
2023-04-05T12:37:48.657Z,6.97
2023-04-05T12:40:22.155Z,7.50
2023-04-05T12:42:50.764Z,8.90
2023-04-05T12:45:19.619Z,7.00
2023-04-05T12:47:53.834Z,8.77
2023-04-05T12:50:29.083Z,7.40
2023-04-05T12:52:59.334Z,6.77
2023-04-05T12:55:29.691Z,8.40
2023-04-05T12:58:00.926Z,7.00
2023-04-05T13:00:31.076Z,9.30
2023-04-05T13:03:01.099Z,11.70
2023-04-05T13:05:31.836Z,8.47
2023-04-05T13:08:00.624Z,7.60
2023-04-05T13:10:29.143Z,6.83
2023-04-05T13:12:57.931Z,8.13
2023-04-05T13:15:27.339Z,6.43
2023-04-05T13:17:55.941Z,9.30
2023-04-05T13:20:24.805Z,7.03
2023-04-05T13:22:54.937Z,8.40
2023-04-05T13:25:23.688Z,7.43
2023-04-05T13:27:52.601Z,7.10
2023-04-05T13:30:21.786Z,7.27
2023-04-05T13:32:50.516Z,9.40
2023-04-05T13:35:19.222Z,7.07
2023-04-05T13:37:47.784Z,9.70
2023-04-05T13:40:17.986Z,10.13
2023-04-05T13:42:46.804Z,6.97
2023-04-05T13:45:15.620Z,7.27
2023-04-05T13:47:44.587Z,9.57
2023-04-05T13:50:13.195Z,7.50
2023-04-05T13:52:41.674Z,9.40
2023-04-05T13:55:10.241Z,9.47
2023-04-05T13:57:40.154Z,7.80
2023-04-05T14:00:10.014Z,7.00
2023-04-05T14:02:42.084Z,7.10
2023-04-05T14:05:11.192Z,8.63
2023-04-05T14:07:40.022Z,6.73
2023-04-05T14:10:10.347Z,8.77
2023-04-05T14:12:40.690Z,7.83
2023-04-05T14:15:10.124Z,7.87
2023-04-05T14:17:38.901Z,6.90
2023-04-05T14:20:08.877Z,6.80
2023-04-05T14:22:37.343Z,8.43
2023-04-05T14:25:08.219Z,8.20
2023-04-05T14:27:41.638Z,7.53
2023-04-05T14:30:13.025Z,7.50
2023-04-05T14:32:41.718Z,9.70
2023-04-05T14:35:11.064Z,9.47
2023-04-05T14:37:39.774Z,8.23
2023-04-05T14:40:09.262Z,9.20
2023-04-05T14:42:48.636Z,8.03
2023-04-05T14:45:19.859Z,8.50
2023-04-05T14:47:48.985Z,10.13
2023-04-05T14:50:17.949Z,9.60
2023-04-05T14:52:46.724Z,6.90
2023-04-05T14:55:16.670Z,8.80
2023-04-05T14:57:45.657Z,11.03
2023-04-05T15:00:15.588Z,9.53
2023-04-05T15:02:46.849Z,9.87
2023-04-05T15:05:15.727Z,9.03
2023-04-05T15:07:44.377Z,7.43
2023-04-05T15:10:13.045Z,12.03
2023-04-05T15:12:41.681Z,10.53
2023-04-05T15:15:10.634Z,11.83
2023-04-05T15:17:39.333Z,8.50
2023-04-05T15:20:10.458Z,8.70
2023-04-05T15:22:41.007Z,10.80
2023-04-05T15:25:10.531Z,11.20
2023-04-05T15:27:39.001Z,11.47
2023-04-05T15:30:09.250Z,9.83
2023-04-05T15:32:38.428Z,13.70
2023-04-05T15:35:09.493Z,10.23
2023-04-05T15:37:39.277Z,9.70
2023-04-05T15:40:09.279Z,11.30
2023-04-05T15:42:37.954Z,11.17
2023-04-05T15:45:07.545Z,8.80
2023-04-05T15:47:36.258Z,10.90
2023-04-05T15:50:05.524Z,8.90
2023-04-05T15:52:36.687Z,8.97
2023-04-05T15:55:06.044Z,12.07
2023-04-05T15:57:34.795Z,9.80
2023-04-05T16:00:03.543Z,14.83
2023-04-05T16:02:33.411Z,9.43
2023-04-05T16:05:02.125Z,10.73
2023-04-05T16:07:31.381Z,10.27
2023-04-05T16:10:01.501Z,11.97
2023-04-05T16:12:30.003Z,14.50
2023-04-05T16:14:58.472Z,10.37
2023-04-05T16:17:28.081Z,11.33
2023-04-05T16:19:57.291Z,10.53
2023-04-05T16:22:26.077Z,11.50
2023-04-05T16:24:54.579Z,10.97
2023-04-05T16:27:24.572Z,8.40
2023-04-05T16:29:53.329Z,11.07
2023-04-05T16:32:22.210Z,10.13
2023-04-05T16:34:50.945Z,10.23
2023-04-05T16:37:20.777Z,11.10
2023-04-05T16:39:49.611Z,9.27
2023-04-05T16:42:18.151Z,12.87
2023-04-05T16:44:48.317Z,12.47
2023-04-05T16:47:17.105Z,10.73
2023-04-05T16:49:45.758Z,12.83
2023-04-05T16:52:14.641Z,10.43
2023-04-05T16:54:43.291Z,12.10
2023-04-05T16:57:11.944Z,11.83
2023-04-05T16:59:41.247Z,8.50
2023-04-05T17:02:11.500Z,9.50
2023-04-05T17:04:40.050Z,12.40
2023-04-05T17:07:08.653Z,10.10
2023-04-05T17:09:37.547Z,8.57
2023-04-05T17:12:06.690Z,9.27
2023-04-05T17:14:35.554Z,11.90
2023-04-05T17:17:04.196Z,9.23
2023-04-05T17:19:34.129Z,9.50
2023-04-05T17:22:03.258Z,11.70
2023-04-05T17:24:36.300Z,9.03
2023-04-05T17:27:05.379Z,11.10
2023-04-05T17:29:37.064Z,9.40
2023-04-05T17:32:05.781Z,10.83
2023-04-05T17:34:35.871Z,11.90
2023-04-05T17:37:04.503Z,9.77
2023-04-05T17:39:33.114Z,8.87
2023-04-05T17:42:01.846Z,9.83
2023-04-05T17:44:30.776Z,11.97
2023-04-05T17:47:08.616Z,12.80
2023-04-05T17:49:39.411Z,8.67
2023-04-05T17:52:08.954Z,9.03
2023-04-05T17:54:38.121Z,12.47
2023-04-05T17:57:06.738Z,14.63
2023-04-05T17:59:36.801Z,10.67
2023-04-05T18:02:05.543Z,12.53
2023-04-05T18:04:34.157Z,10.07
2023-04-05T18:07:04.198Z,11.53
2023-04-05T18:09:33.479Z,14.93
2023-04-05T18:12:02.528Z,16.43
2023-04-05T18:14:31.554Z,10.37
2023-04-05T18:17:00.562Z,12.33
2023-04-05T18:19:29.516Z,9.07
2023-04-05T18:21:58.143Z,10.10
2023-04-05T18:24:29.569Z,12.53
2023-04-05T18:26:58.455Z,13.93
2023-04-05T18:29:30.858Z,9.77
2023-04-05T18:31:59.666Z,10.37
2023-04-05T18:34:28.219Z,10.80
2023-04-05T18:36:56.708Z,10.37
2023-04-05T18:39:27.448Z,14.70
2023-04-05T18:41:58.417Z,12.83
2023-04-05T18:44:27.138Z,10.87
2023-04-05T18:46:57.113Z,15.87
2023-04-05T18:49:26.000Z,10.07
2023-04-05T18:51:55.928Z,14.47
2023-04-05T18:54:25.115Z,13.80
2023-04-05T18:56:53.742Z,16.20
2023-04-05T18:59:23.794Z,22.97
2023-04-05T19:01:52.450Z,15.90
2023-04-05T19:04:23.150Z,13.20
2023-04-05T19:06:51.763Z,13.23
2023-04-05T19:09:22.253Z,14.37
2023-04-05T19:11:53.869Z,19.73
2023-04-05T19:14:23.919Z,17.40
2023-04-05T19:16:52.483Z,13.73
2023-04-05T19:19:21.113Z,13.73
2023-04-05T19:21:49.887Z,12.23
2023-04-05T19:24:18.590Z,16.27
2023-04-05T19:26:47.501Z,13.93
2023-04-05T19:29:17.595Z,16.17
2023-04-05T19:31:48.699Z,15.90
2023-04-05T19:34:17.232Z,15.27
2023-04-05T19:36:45.951Z,18.10
2023-04-05T19:39:14.600Z,13.10
2023-04-05T19:41:43.114Z,15.80
2023-04-05T19:44:13.129Z,13.20
2023-04-05T19:46:42.207Z,14.93
2023-04-05T19:49:14.335Z,11.67
2023-04-05T19:51:43.965Z,13.27
2023-04-05T19:54:15.045Z,17.03
2023-04-05T19:56:43.844Z,16.90
2023-04-05T19:59:29.969Z,13.80
2023-04-05T20:02:00.289Z,14.27
2023-04-05T20:04:34.524Z,20.83
2023-04-05T20:07:03.991Z,13.80
2023-04-05T20:09:34.231Z,15.67
2023-04-05T20:12:05.718Z,12.70
2023-04-05T20:14:41.387Z,14.80
2023-04-05T20:17:12.390Z,18.20
2023-04-05T20:19:55.983Z,19.77
2023-04-05T20:22:24.814Z,15.17
2023-04-05T20:24:53.483Z,16.97
2023-04-05T20:27:22.573Z,19.20
2023-04-05T20:29:52.571Z,14.70
2023-04-05T20:32:22.387Z,18.30
2023-04-05T20:34:52.523Z,14.20
2023-04-05T20:37:21.086Z,18.43
2023-04-05T20:39:50.580Z,20.20
2023-04-05T20:42:19.088Z,20.27
2023-04-05T20:44:48.156Z,20.13
2023-04-05T20:47:16.772Z,13.50
2023-04-05T20:49:47.652Z,24.53
2023-04-05T20:52:18.232Z,15.53
2023-04-05T20:54:49.885Z,16.03
2023-04-05T20:57:18.443Z,15.20
2023-04-05T20:59:47.454Z,21.93
2023-04-05T21:02:16.224Z,19.70
2023-04-05T21:04:45.651Z,18.33
2023-04-05T21:07:14.197Z,14.67
2023-04-05T21:09:44.268Z,17.87
2023-04-05T21:12:13.198Z,19.33
2023-04-05T21:14:41.755Z,17.80
2023-04-05T21:17:10.259Z,17.47
2023-04-05T21:19:38.834Z,16.20
2023-04-05T21:22:07.335Z,18.27
2023-04-05T21:24:36.220Z,15.50
2023-04-05T21:27:06.297Z,11.87
2023-04-05T21:29:34.722Z,19.87
2023-04-05T21:32:03.307Z,17.43
2023-04-05T21:34:31.837Z,15.90
2023-04-05T21:37:00.382Z,17.80
2023-04-05T21:39:28.802Z,15.20
2023-04-05T21:41:57.350Z,13.30
2023-04-05T21:44:27.244Z,17.83
2023-04-05T21:46:57.418Z,17.20
2023-04-05T21:49:25.890Z,18.93
2023-04-05T21:51:54.326Z,16.13
2023-04-05T21:54:22.744Z,20.83
2023-04-05T21:56:51.662Z,20.63
2023-04-05T21:59:20.312Z,15.87
2023-04-05T22:01:50.306Z,18.53
2023-04-05T22:04:18.761Z,16.80
2023-04-05T22:06:47.396Z,17.20
2023-04-05T22:09:15.967Z,16.20
2023-04-05T22:11:44.901Z,18.97
2023-04-05T22:14:13.535Z,18.80
2023-04-05T22:16:42.049Z,20.77
2023-04-05T22:19:12.534Z,21.23
2023-04-05T22:21:41.432Z,17.97
2023-04-05T22:24:10.605Z,19.90
2023-04-05T22:26:39.835Z,19.20
2023-04-05T22:29:08.786Z,16.97
2023-04-05T22:31:37.572Z,22.67
2023-04-05T22:34:05.979Z,21.33
2023-04-05T22:36:35.927Z,22.30
2023-04-05T22:39:04.467Z,20.73
2023-04-05T22:41:32.988Z,18.83
2023-04-05T22:44:01.357Z,18.77
2023-04-05T22:46:29.939Z,17.77
2023-04-05T22:48:58.814Z,15.17
2023-04-05T22:51:27.324Z,16.03
2023-04-05T22:53:57.180Z,22.60
2023-04-05T22:56:25.886Z,18.37
2023-04-05T22:58:54.345Z,22.90
2023-04-05T23:01:22.795Z,18.73
2023-04-05T23:03:51.406Z,15.63
2023-04-05T23:06:19.890Z,16.83
2023-04-05T23:08:48.222Z,21.90
2023-04-05T23:11:18.222Z,20.77
2023-04-05T23:13:46.673Z,17.37
2023-04-05T23:16:15.183Z,17.40
2023-04-05T23:18:44.255Z,15.47
2023-04-05T23:21:12.590Z,19.53
2023-04-05T23:23:41.307Z,18.13
2023-04-05T23:26:09.810Z,20.87
2023-04-05T23:28:39.530Z,18.63
2023-04-05T23:31:07.911Z,17.10
2023-04-05T23:33:36.386Z,16.00
2023-04-05T23:36:05.216Z,16.77
2023-04-05T23:38:33.653Z,18.20
2023-04-05T23:41:01.962Z,19.37
2023-04-05T23:43:30.359Z,16.73
2023-04-05T23:46:00.481Z,22.87
2023-04-05T23:48:28.973Z,20.77
2023-04-05T23:50:57.446Z,16.47
2023-04-05T23:53:25.939Z,17.87
2023-04-05T23:55:56.883Z,16.67
2023-04-05T23:58:25.551Z,19.83
